createdAt,value
2023-03-03T00:02:00.145Z,86.48
2023-03-03T00:04:23.692Z,84.69
2023-03-03T00:06:47.437Z,85.93
2023-03-03T00:09:10.973Z,84.90
2023-03-03T00:11:36.003Z,85.33
2023-03-03T00:13:59.543Z,85.51
2023-03-03T00:16:28.782Z,85.06
2023-03-03T00:18:53.095Z,87.29
2023-03-03T00:21:41.944Z,85.22
2023-03-03T00:24:21.773Z,84.53
2023-03-03T00:26:49.334Z,86.07
2023-03-03T00:29:31.965Z,85.06
2023-03-03T00:31:56.187Z,84.11
2023-03-03T00:34:27.695Z,84.69
2023-03-03T00:36:56.073Z,83.94
2023-03-03T00:39:32.438Z,84.27
2023-03-03T00:41:58.064Z,85.02
2023-03-03T00:44:42.400Z,86.01
2023-03-03T00:47:30.829Z,85.37
2023-03-03T00:49:57.161Z,86.24
2023-03-03T00:52:22.411Z,86.21
2023-03-03T00:54:46.679Z,84.36
2023-03-03T00:57:12.748Z,86.03
2023-03-03T00:59:38.118Z,86.18
2023-03-03T01:02:01.766Z,84.54
2023-03-03T01:04:25.592Z,85.84
2023-03-03T01:06:49.806Z,84.64
2023-03-03T01:09:13.432Z,85.15
2023-03-03T01:11:36.966Z,85.32
2023-03-03T01:14:02.113Z,86.05
2023-03-03T01:16:25.855Z,87.80
2023-03-03T01:18:49.579Z,85.10
2023-03-03T01:21:13.777Z,86.25
2023-03-03T01:23:37.542Z,85.16
2023-03-03T01:26:01.235Z,85.86
2023-03-03T01:28:24.865Z,85.04
2023-03-03T01:30:50.928Z,84.03
2023-03-03T01:33:14.590Z,85.95
2023-03-03T01:35:40.923Z,84.91
2023-03-03T01:38:04.773Z,84.46
2023-03-03T01:40:31.667Z,87.30
2023-03-03T01:42:55.641Z,85.88
2023-03-03T01:45:24.217Z,85.63
2023-03-03T01:47:55.476Z,84.12
2023-03-03T01:50:30.075Z,84.07
2023-03-03T01:52:53.716Z,84.75
2023-03-03T01:55:22.282Z,85.69
2023-03-03T01:57:50.056Z,85.73
2023-03-03T02:00:15.299Z,85.96
2023-03-03T02:02:39.760Z,86.57
2023-03-03T02:05:06.057Z,87.14
2023-03-03T02:07:32.131Z,87.00
2023-03-03T02:10:01.264Z,87.05
2023-03-03T02:12:33.671Z,86.25
2023-03-03T02:14:57.282Z,85.57
2023-03-03T02:17:20.866Z,87.61
2023-03-03T02:19:54.043Z,87.41
2023-03-03T02:22:25.056Z,87.08
2023-03-03T02:24:53.132Z,87.08
2023-03-03T02:27:18.790Z,86.33
2023-03-03T02:29:42.918Z,86.17
2023-03-03T02:32:07.624Z,86.25
2023-03-03T02:34:31.356Z,86.47
2023-03-03T02:36:54.913Z,86.88
2023-03-03T02:39:22.094Z,86.63
2023-03-03T02:41:53.337Z,88.03
2023-03-03T02:44:22.049Z,86.66
2023-03-03T02:46:48.591Z,86.47
2023-03-03T02:49:16.070Z,86.73
2023-03-03T02:51:40.598Z,86.85
2023-03-03T02:54:05.699Z,87.39
2023-03-03T02:56:30.200Z,86.37
2023-03-03T02:58:54.165Z,88.05
2023-03-03T03:01:19.720Z,88.92
2023-03-03T03:03:43.787Z,86.46
2023-03-03T03:06:07.643Z,87.38
2023-03-03T03:08:32.319Z,87.82
2023-03-03T03:10:57.970Z,87.11
2023-03-03T03:13:23.527Z,88.62
2023-03-03T03:15:48.216Z,88.26
2023-03-03T03:18:13.240Z,88.47
2023-03-03T03:20:40.116Z,88.32
2023-03-03T03:23:05.004Z,87.51
2023-03-03T03:25:28.582Z,87.50
2023-03-03T03:27:53.204Z,88.14
2023-03-03T03:30:17.195Z,88.91
2023-03-03T03:32:41.038Z,90.62
2023-03-03T03:35:08.209Z,89.33
2023-03-03T03:37:32.726Z,90.14
2023-03-03T03:39:56.392Z,88.85
2023-03-03T03:42:20.572Z,88.29
2023-03-03T03:44:44.746Z,88.18
2023-03-03T03:47:08.472Z,90.75
2023-03-03T03:49:33.044Z,90.04
2023-03-03T03:51:58.249Z,88.81
2023-03-03T03:54:24.849Z,88.09
2023-03-03T03:56:48.999Z,89.14
2023-03-03T03:59:12.685Z,89.12
2023-03-03T04:01:36.569Z,92.29
2023-03-03T04:04:00.498Z,92.24
2023-03-03T04:06:24.349Z,91.50
2023-03-03T04:08:50.408Z,90.95
2023-03-03T04:11:16.897Z,91.54
2023-03-03T04:13:40.449Z,91.94
2023-03-03T04:16:06.361Z,90.13
2023-03-03T04:18:30.369Z,90.65
2023-03-03T04:20:55.515Z,91.10
2023-03-03T04:23:19.686Z,90.96
2023-03-03T04:25:45.201Z,91.43
2023-03-03T04:28:11.470Z,90.09
2023-03-03T04:30:35.493Z,90.04
2023-03-03T04:32:59.017Z,90.83
2023-03-03T04:35:25.454Z,90.36
2023-03-03T04:37:50.001Z,89.11
2023-03-03T04:40:14.059Z,89.83
2023-03-03T04:42:40.660Z,90.73
2023-03-03T04:45:07.642Z,90.68
2023-03-03T04:47:33.381Z,91.48
2023-03-03T04:49:57.039Z,90.64
2023-03-03T04:52:20.718Z,90.51
2023-03-03T04:54:44.625Z,91.91
2023-03-03T04:57:09.517Z,90.68
2023-03-03T04:59:35.200Z,91.18
2023-03-03T05:01:59.493Z,91.79
2023-03-03T05:04:23.451Z,89.91
2023-03-03T05:06:46.981Z,91.49
2023-03-03T05:09:10.791Z,91.51
2023-03-03T05:11:34.323Z,90.72
2023-03-03T05:13:57.913Z,92.41
2023-03-03T05:16:22.861Z,91.21
2023-03-03T05:18:47.502Z,91.35
2023-03-03T05:21:11.018Z,90.50
2023-03-03T05:23:34.661Z,89.72
2023-03-03T05:25:58.617Z,90.42
2023-03-03T05:28:22.470Z,91.74
2023-03-03T05:30:46.116Z,92.98
2023-03-03T05:33:16.154Z,91.72
2023-03-03T05:35:39.759Z,91.21
2023-03-03T05:38:05.492Z,90.83
2023-03-03T05:40:29.837Z,92.02
2023-03-03T05:42:53.681Z,92.53
2023-03-03T05:45:20.409Z,93.12
2023-03-03T05:47:43.938Z,92.21
2023-03-03T05:50:10.514Z,90.42
2023-03-03T05:52:34.089Z,90.75
2023-03-03T05:54:57.656Z,91.96
2023-03-03T05:57:21.209Z,91.62
2023-03-03T05:59:44.773Z,91.04
2023-03-03T06:02:08.426Z,91.60
2023-03-03T06:04:32.018Z,90.44
2023-03-03T06:06:56.976Z,91.96
2023-03-03T06:09:21.150Z,90.85
2023-03-03T06:11:44.750Z,91.28
2023-03-03T06:14:08.293Z,92.15
2023-03-03T06:16:31.922Z,92.23
2023-03-03T06:18:55.545Z,92.27
2023-03-03T06:21:19.119Z,92.44
2023-03-03T06:23:44.171Z,92.04
2023-03-03T06:26:07.932Z,91.67
2023-03-03T06:28:31.512Z,92.25
2023-03-03T06:30:55.770Z,91.56
2023-03-03T06:33:19.283Z,92.21
2023-03-03T06:35:42.911Z,92.83
2023-03-03T06:38:06.559Z,92.18
2023-03-03T06:40:32.004Z,92.16
2023-03-03T06:42:55.759Z,92.03
2023-03-03T06:45:19.546Z,91.93
2023-03-03T06:47:43.168Z,93.65
2023-03-03T06:50:08.095Z,92.12
2023-03-03T06:52:31.640Z,92.75
2023-03-03T06:54:57.318Z,93.71
2023-03-03T06:57:28.609Z,93.78
2023-03-03T06:59:56.008Z,93.27
2023-03-03T07:02:20.889Z,92.91
2023-03-03T07:04:44.583Z,92.72
2023-03-03T07:07:18.640Z,92.79
2023-03-03T07:09:42.280Z,91.82
2023-03-03T07:12:14.829Z,91.05
2023-03-03T07:14:45.431Z,92.14
2023-03-03T07:17:17.241Z,91.76
2023-03-03T07:19:41.244Z,92.54
2023-03-03T07:22:17.246Z,93.34
2023-03-03T07:24:41.472Z,91.85
2023-03-03T07:27:14.112Z,92.07
2023-03-03T07:29:41.296Z,91.58
2023-03-03T07:32:13.110Z,91.77
2023-03-03T07:34:41.829Z,91.69
2023-03-03T07:37:14.690Z,90.53
2023-03-03T07:39:40.836Z,90.91
2023-03-03T07:42:21.019Z,90.48
2023-03-03T07:44:54.083Z,90.29
2023-03-03T07:47:22.811Z,92.62
2023-03-03T07:49:46.369Z,92.73
2023-03-03T07:52:30.959Z,92.24
2023-03-03T07:54:57.314Z,91.50
2023-03-03T07:57:24.996Z,90.84
2023-03-03T07:59:52.267Z,91.66
2023-03-03T08:02:41.570Z,91.79
2023-03-03T08:05:30.315Z,91.76
2023-03-03T08:07:54.182Z,90.89
2023-03-03T08:10:36.649Z,90.39
2023-03-03T08:13:02.914Z,91.04
2023-03-03T08:15:32.885Z,90.56
2023-03-03T08:17:57.721Z,91.03
2023-03-03T08:20:56.810Z,90.83
2023-03-03T08:23:22.006Z,91.26
2023-03-03T08:25:46.442Z,90.63
2023-03-03T08:28:10.688Z,89.73
2023-03-03T08:30:35.744Z,89.73
2023-03-03T08:32:59.594Z,89.71
2023-03-03T08:35:23.158Z,89.94
2023-03-03T08:37:46.823Z,89.32
2023-03-03T08:40:12.269Z,90.62
2023-03-03T08:42:35.923Z,89.80
2023-03-03T08:44:59.492Z,88.26
2023-03-03T08:47:24.456Z,88.92
2023-03-03T08:49:48.035Z,88.00
2023-03-03T08:52:11.650Z,88.57
2023-03-03T08:54:35.215Z,87.06
2023-03-03T08:56:58.827Z,87.31
2023-03-03T08:59:22.453Z,87.25
2023-03-03T09:01:46.106Z,87.45
2023-03-03T09:04:11.096Z,87.32
2023-03-03T09:06:34.717Z,87.29
2023-03-03T09:08:58.522Z,88.44
2023-03-03T09:11:27.572Z,88.00
2023-03-03T09:13:53.408Z,87.60
2023-03-03T09:16:17.797Z,87.83
2023-03-03T09:18:41.704Z,87.31
2023-03-03T09:21:24.848Z,86.97
2023-03-03T09:23:55.119Z,86.95
2023-03-03T09:26:30.395Z,86.91
2023-03-03T09:28:54.391Z,86.26
2023-03-03T09:31:27.218Z,85.97
2023-03-03T09:33:52.028Z,85.55
2023-03-03T09:36:26.289Z,86.00
2023-03-03T09:38:50.651Z,87.13
2023-03-03T09:41:59.130Z,85.97
2023-03-03T09:44:53.089Z,85.96
2023-03-03T09:47:42.921Z,86.59
2023-03-03T09:50:20.318Z,86.33
2023-03-03T09:52:53.914Z,86.61
2023-03-03T09:55:37.130Z,85.92
2023-03-03T09:58:28.877Z,85.81
2023-03-03T10:01:07.601Z,86.87
2023-03-03T10:04:12.717Z,84.97
2023-03-03T10:06:43.478Z,85.60
2023-03-03T10:09:49.681Z,85.25
2023-03-03T10:12:19.584Z,86.81
2023-03-03T10:15:04.610Z,85.84
2023-03-03T10:17:45.725Z,85.68
2023-03-03T10:20:54.796Z,86.20
2023-03-03T10:23:23.423Z,86.69
2023-03-03T10:25:57.296Z,86.45
2023-03-03T10:29:09.259Z,84.71
2023-03-03T10:31:51.621Z,85.41
2023-03-03T10:34:56.327Z,86.31
2023-03-03T10:37:26.131Z,87.42
2023-03-03T10:40:15.117Z,85.82
2023-03-03T10:43:00.146Z,84.73
2023-03-03T10:46:14.308Z,86.27
2023-03-03T10:49:13.628Z,85.24
2023-03-03T10:51:55.033Z,84.26
2023-03-03T10:54:45.085Z,84.76
2023-03-03T10:57:17.028Z,84.48
2023-03-03T11:00:16.467Z,84.69
2023-03-03T11:02:53.482Z,83.45
2023-03-03T11:05:31.332Z,83.83
2023-03-03T11:08:03.316Z,82.67
2023-03-03T11:10:43.564Z,82.92
2023-03-03T11:13:15.946Z,82.78
2023-03-03T11:15:53.267Z,83.73
2023-03-03T11:18:27.085Z,83.14
2023-03-03T11:20:59.700Z,83.46
2023-03-03T11:23:51.405Z,83.94
2023-03-03T11:26:27.163Z,84.44
2023-03-03T11:29:06.643Z,84.65
2023-03-03T11:31:38.581Z,83.76
2023-03-03T11:34:15.964Z,82.96
2023-03-03T11:36:45.508Z,83.57
2023-03-03T11:39:13.792Z,84.17
2023-03-03T11:41:42.472Z,83.86
2023-03-03T11:44:19.205Z,83.99
2023-03-03T11:46:50.044Z,83.70
2023-03-03T11:49:22.685Z,84.15
2023-03-03T11:52:02.562Z,83.96
2023-03-03T11:54:34.122Z,83.86
2023-03-03T11:57:14.568Z,83.76
2023-03-03T11:59:55.053Z,84.98
2023-03-03T12:03:12.510Z,84.11
2023-03-03T12:05:49.035Z,82.79
2023-03-03T12:08:29.264Z,82.91
2023-03-03T12:11:03.730Z,82.56
2023-03-03T12:13:39.548Z,82.87
2023-03-03T12:16:12.728Z,83.21
2023-03-03T12:19:00.286Z,83.83
2023-03-03T12:24:45.283Z,82.68
2023-03-03T12:27:20.390Z,83.92
2023-03-03T12:29:54.098Z,82.64
2023-03-03T12:32:30.321Z,81.10
2023-03-03T12:35:00.020Z,81.48
2023-03-03T12:37:48.288Z,82.46
2023-03-03T12:40:20.810Z,81.55
2023-03-03T12:43:02.905Z,81.22
2023-03-03T12:45:42.489Z,80.24
2023-03-03T12:48:11.264Z,80.64
2023-03-03T12:50:47.741Z,80.35
2023-03-03T12:53:49.322Z,81.33
2023-03-03T12:56:17.061Z,80.71
2023-03-03T12:58:50.511Z,79.92
2023-03-03T13:01:33.319Z,80.11
2023-03-03T13:04:06.293Z,79.07
2023-03-03T13:06:34.840Z,79.09
2023-03-03T13:09:20.234Z,79.71
2023-03-03T13:12:36.649Z,79.25
2023-03-03T13:15:13.808Z,81.54
2023-03-03T13:17:49.471Z,81.32
2023-03-03T13:20:26.681Z,81.69
2023-03-03T13:22:57.979Z,80.86
2023-03-03T13:25:40.280Z,80.61
2023-03-03T13:28:14.249Z,79.66
2023-03-03T13:30:56.816Z,80.04
2023-03-03T13:33:28.980Z,80.26
2023-03-03T13:35:58.213Z,80.47
2023-03-03T13:38:27.311Z,79.22
2023-03-03T13:40:56.477Z,79.25
2023-03-03T13:43:25.258Z,78.70
2023-03-03T13:46:02.516Z,77.97
2023-03-03T13:48:48.436Z,77.91
2023-03-03T13:51:22.736Z,79.11
2023-03-03T13:54:00.138Z,78.76
2023-03-03T13:56:47.801Z,77.58
2023-03-03T13:59:23.203Z,78.75
2023-03-03T14:01:59.000Z,79.91
2023-03-03T14:04:41.830Z,78.70
2023-03-03T14:07:14.502Z,79.02
2023-03-03T14:10:01.286Z,78.67
2023-03-03T14:12:31.041Z,77.31
2023-03-03T14:15:05.292Z,77.32
2023-03-03T14:17:38.700Z,76.65
2023-03-03T14:20:21.348Z,77.10
2023-03-03T14:22:53.480Z,77.64
2023-03-03T14:25:19.046Z,78.32
2023-03-03T14:28:02.884Z,77.30
2023-03-03T14:30:32.703Z,78.10
2023-03-03T14:33:09.282Z,77.31
2023-03-03T14:35:36.766Z,78.23
2023-03-03T14:38:04.853Z,78.03
2023-03-03T14:40:34.805Z,78.50
2023-03-03T14:43:01.898Z,77.81
2023-03-03T14:45:36.178Z,77.01
2023-03-03T14:48:01.111Z,77.63
2023-03-03T14:50:38.367Z,77.51
2023-03-03T14:53:21.483Z,76.37
2023-03-03T14:55:49.771Z,76.13
2023-03-03T14:58:29.213Z,77.16
2023-03-03T15:00:53.856Z,77.00
2023-03-03T15:03:23.952Z,76.92
2023-03-03T15:05:51.839Z,76.44
2023-03-03T15:08:16.970Z,77.41
2023-03-03T15:10:42.712Z,78.44
2023-03-03T15:13:32.810Z,77.01
2023-03-03T15:16:06.638Z,78.30
2023-03-03T15:18:33.526Z,77.02
2023-03-03T15:21:05.236Z,77.73
2023-03-03T15:23:51.007Z,77.73
2023-03-03T15:26:22.297Z,77.33
2023-03-03T15:29:06.448Z,77.60
2023-03-03T15:31:42.433Z,78.12
2023-03-03T15:34:27.249Z,77.87
2023-03-03T15:37:00.324Z,76.99
2023-03-03T15:39:36.035Z,77.02
2023-03-03T15:42:06.048Z,76.17
2023-03-03T15:44:42.587Z,77.39
2023-03-03T15:47:40.149Z,76.61
2023-03-03T15:50:27.952Z,75.97
2023-03-03T15:53:03.177Z,75.24
2023-03-03T15:55:43.443Z,74.61
2023-03-03T15:58:41.603Z,74.58
2023-03-03T16:01:14.943Z,75.01
2023-03-03T16:03:46.445Z,76.49
2023-03-03T16:06:18.090Z,76.48
2023-03-03T16:08:52.015Z,75.90
2023-03-03T16:11:25.849Z,74.98
2023-03-03T16:14:08.640Z,76.27
2023-03-03T16:16:45.027Z,75.41
2023-03-03T16:19:22.442Z,75.25
2023-03-03T16:22:09.904Z,74.50
2023-03-03T16:24:49.708Z,74.67
2023-03-03T16:27:20.636Z,75.83
2023-03-03T16:30:06.166Z,75.28
2023-03-03T16:32:39.404Z,76.74
2023-03-03T16:35:18.712Z,75.62
2023-03-03T16:37:56.300Z,75.61
2023-03-03T16:40:25.065Z,75.77
2023-03-03T16:42:54.308Z,75.16
2023-03-03T16:45:24.671Z,75.81
2023-03-03T16:48:13.088Z,75.80
2023-03-03T16:50:48.060Z,78.06
2023-03-03T16:53:20.971Z,77.68
2023-03-03T16:55:58.335Z,77.67
2023-03-03T16:58:38.632Z,77.12
2023-03-03T17:01:16.330Z,77.42
2023-03-03T17:04:00.781Z,76.76
2023-03-03T17:06:35.146Z,77.01
2023-03-03T17:09:41.744Z,76.22
2023-03-03T17:12:41.620Z,75.76
2023-03-03T17:15:29.268Z,75.95
2023-03-03T17:18:03.171Z,76.34
2023-03-03T17:20:39.182Z,76.05
2023-03-03T17:23:36.633Z,76.46
2023-03-03T17:26:13.580Z,76.43
2023-03-03T17:28:49.820Z,77.07
2023-03-03T17:31:24.878Z,76.37
2023-03-03T17:34:03.968Z,75.81
2023-03-03T17:36:43.102Z,75.31
2023-03-03T17:39:25.759Z,76.70
2023-03-03T17:41:59.854Z,76.26
2023-03-03T17:44:33.606Z,77.38
2023-03-03T17:47:01.672Z,78.11
2023-03-03T17:49:56.032Z,77.46
2023-03-03T17:52:40.674Z,79.17
2023-03-03T17:55:48.481Z,80.10
2023-03-03T17:58:49.213Z,81.39
2023-03-03T18:01:26.945Z,82.45
2023-03-03T18:04:22.886Z,82.51
2023-03-03T18:07:36.519Z,84.33
2023-03-03T18:10:32.704Z,84.28
2023-03-03T18:13:07.755Z,85.23
2023-03-03T18:15:51.863Z,85.58
2023-03-03T18:18:53.789Z,84.42
2023-03-03T18:21:22.687Z,84.91
2023-03-03T18:23:48.942Z,84.47
2023-03-03T18:26:36.705Z,82.73
2023-03-03T18:29:24.681Z,83.61
2023-03-03T18:32:19.805Z,83.86
2023-03-03T18:34:44.141Z,82.91
2023-03-03T18:37:38.655Z,82.63
2023-03-03T18:40:31.854Z,82.50
2023-03-03T18:42:55.432Z,82.49
2023-03-03T18:45:51.783Z,82.91
2023-03-03T18:48:17.393Z,82.13
2023-03-03T18:50:43.260Z,82.38
2023-03-03T18:53:27.120Z,83.00
2023-03-03T18:55:52.488Z,82.20
2023-03-03T18:58:41.973Z,83.56
2023-03-03T19:01:44.383Z,83.49
2023-03-03T19:04:21.405Z,83.01
2023-03-03T19:07:24.829Z,82.66
2023-03-03T19:09:57.387Z,83.13
2023-03-03T19:12:52.561Z,84.38
2023-03-03T19:15:55.645Z,83.68
2023-03-03T19:18:23.746Z,84.08
2023-03-03T19:20:51.943Z,84.29
2023-03-03T19:23:19.865Z,83.91
2023-03-03T19:25:44.945Z,83.74
2023-03-03T19:28:33.340Z,83.75
2023-03-03T19:30:59.054Z,83.41
2023-03-03T19:33:38.494Z,83.87
2023-03-03T19:36:45.504Z,84.84
2023-03-03T19:39:34.000Z,83.39
2023-03-03T19:42:08.425Z,82.22
2023-03-03T19:45:00.658Z,82.83
2023-03-03T19:47:35.645Z,83.17
2023-03-03T19:50:23.762Z,83.89
2023-03-03T19:52:57.596Z,83.53
2023-03-03T19:55:29.560Z,82.27
2023-03-03T19:58:09.136Z,83.67
2023-03-03T20:00:40.442Z,83.22
2023-03-03T20:03:41.512Z,82.78
2023-03-03T20:06:25.158Z,82.98
2023-03-03T20:08:58.712Z,82.92
2023-03-03T20:11:46.162Z,82.97
2023-03-03T20:14:28.121Z,82.86
2023-03-03T20:16:57.784Z,82.48
2023-03-03T20:19:39.412Z,81.40
2023-03-03T20:22:10.650Z,81.16
2023-03-03T20:25:04.841Z,80.49
2023-03-03T20:27:37.379Z,79.71
2023-03-03T20:30:30.978Z,79.25
2023-03-03T20:33:13.948Z,78.45
2023-03-03T20:35:51.521Z,77.98
2023-03-03T20:38:26.604Z,77.15
2023-03-03T20:40:56.546Z,76.63
2023-03-03T20:43:47.153Z,77.20
2023-03-03T20:46:23.226Z,76.71
2023-03-03T20:49:05.126Z,76.55
2023-03-03T20:51:36.301Z,76.98
2023-03-03T20:54:15.157Z,76.83
2023-03-03T20:56:48.473Z,76.44
2023-03-03T20:59:25.534Z,76.75
2023-03-03T21:02:01.231Z,76.20
2023-03-03T21:04:28.019Z,76.82
2023-03-03T21:06:52.611Z,77.00
2023-03-03T21:09:28.199Z,76.15
2023-03-03T21:11:52.093Z,76.48
2023-03-03T21:14:21.529Z,76.47
2023-03-03T21:16:45.510Z,76.89
2023-03-03T21:19:13.844Z,76.34
2023-03-03T21:21:42.379Z,76.08
2023-03-03T21:24:07.377Z,75.76
2023-03-03T21:26:53.781Z,76.33
2023-03-03T21:29:25.092Z,76.84
2023-03-03T21:31:50.309Z,76.46
2023-03-03T21:34:29.281Z,76.99
2023-03-03T21:36:54.196Z,77.44
2023-03-03T21:39:27.738Z,76.13
2023-03-03T21:41:57.287Z,77.06
2023-03-03T21:44:39.263Z,76.27
2023-03-03T21:47:03.457Z,77.69
2023-03-03T21:49:28.849Z,76.94
2023-03-03T21:51:52.552Z,76.85
2023-03-03T21:54:16.154Z,76.35
2023-03-03T21:56:41.781Z,76.72
2023-03-03T21:59:05.411Z,78.10
2023-03-03T22:01:28.994Z,77.83
2023-03-03T22:03:52.620Z,76.72
2023-03-03T22:06:17.701Z,77.12
2023-03-03T22:08:41.386Z,77.27
2023-03-03T22:11:05.685Z,77.54
2023-03-03T22:13:29.283Z,77.04
2023-03-03T22:15:53.613Z,77.18
2023-03-03T22:18:19.287Z,76.60
2023-03-03T22:20:42.885Z,77.21
2023-03-03T22:23:07.906Z,77.75
2023-03-03T22:25:31.537Z,78.06
2023-03-03T22:27:55.082Z,77.52
2023-03-03T22:30:19.266Z,77.97
2023-03-03T22:32:42.854Z,78.81
2023-03-03T22:35:08.078Z,77.81
2023-03-03T22:37:31.704Z,77.44
2023-03-03T22:39:56.864Z,77.84
2023-03-03T22:42:20.679Z,78.05
2023-03-03T22:44:45.888Z,77.80
2023-03-03T22:47:09.595Z,78.04
2023-03-03T22:49:33.175Z,77.57
2023-03-03T22:51:58.828Z,78.98
2023-03-03T22:54:22.438Z,78.71
2023-03-03T22:56:47.479Z,78.25
2023-03-03T22:59:11.084Z,78.84
2023-03-03T23:01:34.627Z,78.26
2023-03-03T23:03:58.328Z,78.82
2023-03-03T23:06:21.845Z,79.04
2023-03-03T23:08:45.593Z,78.79
2023-03-03T23:11:09.185Z,79.36
2023-03-03T23:13:35.283Z,79.61
2023-03-03T23:16:00.351Z,79.71
2023-03-03T23:18:24.075Z,79.88
2023-03-03T23:20:47.626Z,81.37
2023-03-03T23:23:11.187Z,81.22
2023-03-03T23:25:35.139Z,80.90
2023-03-03T23:27:59.334Z,80.37
2023-03-03T23:30:25.301Z,79.91
2023-03-03T23:32:49.548Z,81.44
2023-03-03T23:35:13.136Z,80.82
2023-03-03T23:37:37.022Z,81.40
2023-03-03T23:40:00.605Z,82.02
2023-03-03T23:42:24.994Z,83.65
2023-03-03T23:44:48.750Z,83.68
2023-03-03T23:47:13.836Z,83.53
2023-03-03T23:49:37.845Z,83.24
2023-03-03T23:52:01.547Z,83.49
2023-03-03T23:54:25.257Z,83.59
2023-03-03T23:56:48.876Z,83.77
2023-03-03T23:59:12.400Z,85.06
